createdAt,value
2023-04-02T00:00:11.214Z,5.93
2023-04-02T00:02:56.718Z,4.43
2023-04-02T00:05:34.646Z,4.22
2023-04-02T00:08:10.159Z,1.85
2023-04-02T00:10:39.206Z,5.32
2023-04-02T00:13:18.068Z,2.70
2023-04-02T00:15:47.450Z,5.55
2023-04-02T00:18:17.894Z,4.05
2023-04-02T00:20:50.934Z,3.83
2023-04-02T00:23:17.397Z,4.18
2023-04-02T00:25:45.609Z,4.80
2023-04-02T00:28:18.887Z,5.78
2023-04-02T00:30:51.459Z,3.42
2023-04-02T00:33:22.020Z,5.68
2023-04-02T00:35:50.746Z,5.32
2023-04-02T00:38:34.602Z,4.45
2023-04-02T00:41:07.485Z,5.50
2023-04-02T00:43:38.247Z,4.43
2023-04-02T00:46:14.091Z,6.53
2023-04-02T00:48:59.856Z,7.18
2023-04-02T00:51:32.257Z,5.57
2023-04-02T00:54:03.151Z,2.55
2023-04-02T00:56:58.036Z,7.43
2023-04-02T00:59:34.195Z,2.47
2023-04-02T01:02:28.154Z,4.55
2023-04-02T01:05:20.129Z,7.32
2023-04-02T01:08:09.989Z,3.80
2023-04-02T01:11:01.378Z,3.85
2023-04-02T01:13:35.240Z,6.88
2023-04-02T01:16:11.416Z,6.55
2023-04-02T01:19:02.370Z,4.88
2023-04-02T01:21:46.250Z,2.45
2023-04-02T01:24:14.512Z,4.70
2023-04-02T01:26:46.092Z,2.67
2023-04-02T01:29:16.483Z,6.00
2023-04-02T01:31:45.353Z,6.72
2023-04-02T01:34:15.879Z,4.60
2023-04-02T01:37:03.591Z,5.38
2023-04-02T01:39:51.954Z,5.47
2023-04-02T01:42:37.074Z,5.82
2023-04-02T01:45:10.939Z,4.80
2023-04-02T01:47:38.918Z,5.15
2023-04-02T01:50:23.533Z,4.25
2023-04-02T01:52:55.468Z,5.07
2023-04-02T01:55:50.609Z,4.55
2023-04-02T01:58:20.208Z,4.72
2023-04-02T02:01:00.825Z,5.15
2023-04-02T02:03:28.251Z,5.47
2023-04-02T02:05:55.787Z,5.60
2023-04-02T02:08:40.182Z,5.82
2023-04-02T02:11:17.822Z,5.95
2023-04-02T02:13:54.496Z,5.32
2023-04-02T02:16:21.726Z,4.78
2023-04-02T02:18:54.817Z,1.88
2023-04-02T02:21:24.642Z,7.15
2023-04-02T02:23:51.393Z,3.85
2023-04-02T02:26:18.239Z,3.33
2023-04-02T02:28:46.895Z,4.80
2023-04-02T02:31:22.805Z,4.72
2023-04-02T02:33:56.756Z,3.90
2023-04-02T02:36:45.492Z,3.63
2023-04-02T02:39:20.273Z,4.35
2023-04-02T02:42:01.119Z,4.47
2023-04-02T02:44:33.004Z,4.10
2023-04-02T02:47:03.462Z,2.72
2023-04-02T02:49:37.583Z,4.18
2023-04-02T02:52:16.216Z,3.55
2023-04-02T02:55:04.961Z,2.80
2023-04-02T02:57:48.733Z,4.20
2023-04-02T03:00:19.190Z,3.72
2023-04-02T03:02:46.806Z,5.45
2023-04-02T03:05:25.012Z,4.85
2023-04-02T03:07:57.191Z,4.93
2023-04-02T03:10:35.305Z,3.05
2023-04-02T03:13:24.276Z,3.20
2023-04-02T03:16:05.999Z,3.03
2023-04-02T03:18:47.238Z,5.38
2023-04-02T03:21:20.142Z,3.78
2023-04-02T03:23:53.394Z,4.38
2023-04-02T03:26:43.593Z,4.05
2023-04-02T03:29:26.269Z,4.20
2023-04-02T03:32:03.418Z,4.15
2023-04-02T03:34:35.526Z,4.22
2023-04-02T03:37:29.841Z,2.75
2023-04-02T03:40:09.945Z,3.25
2023-04-02T03:42:51.031Z,4.47
2023-04-02T03:45:32.121Z,5.25
2023-04-02T03:48:16.850Z,2.85
2023-04-02T03:50:55.709Z,3.38
2023-04-02T03:53:25.136Z,3.97
2023-04-02T03:55:52.699Z,4.32
2023-04-02T03:58:38.535Z,2.75
2023-04-02T04:01:18.607Z,3.78
2023-04-02T04:03:50.150Z,3.35
2023-04-02T04:06:23.175Z,1.92
2023-04-02T04:08:55.750Z,5.28
2023-04-02T04:11:27.414Z,5.72
2023-04-02T04:14:03.312Z,3.75
2023-04-02T04:16:40.175Z,5.15
2023-04-02T04:19:21.859Z,2.25
2023-04-02T04:21:48.700Z,4.88
2023-04-02T04:24:27.281Z,3.97
2023-04-02T04:27:17.124Z,2.85
2023-04-02T04:29:59.739Z,2.67
2023-04-02T04:32:34.347Z,3.20
2023-04-02T04:35:35.344Z,2.55
2023-04-02T04:38:27.656Z,2.78
2023-04-02T04:41:13.922Z,3.05
2023-04-02T04:43:47.172Z,2.97
2023-04-02T04:46:23.511Z,3.08
2023-04-02T04:49:22.386Z,3.05
2023-04-02T04:51:55.667Z,3.95
2023-04-02T04:54:27.418Z,2.20
2023-04-02T04:57:00.931Z,2.20
2023-04-02T05:00:17.960Z,3.28
2023-04-02T05:02:54.587Z,1.27
2023-04-02T05:05:29.997Z,3.08
2023-04-02T05:08:06.466Z,2.17
2023-04-02T05:10:43.898Z,2.53
2023-04-02T05:15:50.803Z,3.78
2023-04-02T05:18:34.743Z,0.60
2023-04-02T05:21:21.622Z,0.85
2023-04-02T05:23:59.572Z,2.45
2023-04-02T05:26:49.773Z,1.35
2023-04-02T05:29:22.179Z,1.65
2023-04-02T05:32:00.860Z,1.33
2023-04-02T05:34:32.522Z,1.33
2023-04-02T05:36:59.436Z,1.60
2023-04-02T05:39:27.051Z,1.35
2023-04-02T05:42:08.164Z,1.38
2023-04-02T05:44:55.638Z,1.05
2023-04-02T05:47:29.284Z,0.80
2023-04-02T05:50:05.760Z,2.10
2023-04-02T05:52:43.117Z,1.60
2023-04-02T05:55:12.393Z,1.38
2023-04-02T05:58:10.361Z,2.25
2023-04-02T06:00:39.947Z,1.02
2023-04-02T06:03:40.934Z,0.88
2023-04-02T06:06:18.553Z,0.45
2023-04-02T06:08:58.203Z,1.50
2023-04-02T06:11:32.061Z,0.65
2023-04-02T06:14:00.402Z,1.52
2023-04-02T06:16:30.703Z,1.30
2023-04-02T06:18:58.011Z,1.67
2023-04-02T06:21:25.986Z,1.52
2023-04-02T06:24:00.366Z,1.25
2023-04-02T06:26:35.167Z,1.17
2023-04-02T06:29:19.282Z,1.05
2023-04-02T06:31:52.144Z,1.25
2023-04-02T06:34:24.037Z,1.92
2023-04-02T06:37:29.990Z,1.60
2023-04-02T06:40:34.824Z,2.42
2023-04-02T06:43:38.490Z,1.60
2023-04-02T06:46:37.812Z,1.58
2023-04-02T06:49:18.876Z,2.80
2023-04-02T06:51:50.693Z,1.98
2023-04-02T06:54:18.670Z,2.95
2023-04-02T06:56:51.896Z,2.50
2023-04-02T06:59:38.790Z,3.08
2023-04-02T07:02:25.454Z,3.42
2023-04-02T07:04:52.884Z,3.22
2023-04-02T07:07:20.836Z,4.25
2023-04-02T07:09:48.700Z,4.18
2023-04-02T07:12:15.326Z,4.20
2023-04-02T07:14:43.135Z,2.28
2023-04-02T07:17:16.898Z,2.22
2023-04-02T07:19:49.121Z,1.95
2023-04-02T07:22:18.944Z,2.10
2023-04-02T07:24:48.714Z,4.40
2023-04-02T07:27:15.475Z,1.80
2023-04-02T07:29:44.772Z,3.03
2023-04-02T07:32:14.465Z,3.17
2023-04-02T07:34:41.774Z,2.33
2023-04-02T07:37:12.772Z,2.35
2023-04-02T07:39:40.678Z,0.77
2023-04-02T07:42:07.969Z,3.03
2023-04-02T07:44:34.515Z,3.15
2023-04-02T07:47:01.127Z,1.60
2023-04-02T07:49:27.733Z,3.40
2023-04-02T07:51:54.185Z,2.67
2023-04-02T07:54:20.825Z,3.88
2023-04-02T07:56:47.312Z,2.15
2023-04-02T07:59:13.834Z,3.33
2023-04-02T08:01:40.843Z,2.88
2023-04-02T08:04:17.014Z,2.25
2023-04-02T08:06:43.484Z,1.92
2023-04-02T08:09:09.909Z,4.85
2023-04-02T08:11:36.352Z,1.98
2023-04-02T08:14:02.771Z,2.05
2023-04-02T08:16:47.469Z,1.95
2023-04-02T08:19:14.572Z,3.25
2023-04-02T08:21:41.274Z,2.30
2023-04-02T08:24:07.842Z,2.08
2023-04-02T08:26:34.387Z,2.03
2023-04-02T08:29:00.996Z,2.63
2023-04-02T08:31:27.536Z,2.88
2023-04-02T08:33:56.672Z,2.75
2023-04-02T08:36:32.904Z,1.98
2023-04-02T08:38:59.390Z,2.45
2023-04-02T08:41:27.962Z,1.95
2023-04-02T08:44:08.178Z,1.60
2023-04-02T08:47:01.271Z,0.68
2023-04-02T08:49:35.890Z,1.42
2023-04-02T08:52:02.371Z,2.85
2023-04-02T08:54:32.308Z,2.83
2023-04-02T08:57:17.842Z,1.42
2023-04-02T08:59:44.891Z,1.23
2023-04-02T09:02:29.907Z,1.20
2023-04-02T09:04:58.624Z,1.70
2023-04-02T09:07:26.973Z,3.35
2023-04-02T09:09:53.472Z,2.63
2023-04-02T09:12:27.685Z,2.40
2023-04-02T09:15:00.014Z,2.20
2023-04-02T09:17:27.360Z,1.65
2023-04-02T09:20:18.667Z,0.63
2023-04-02T09:22:48.494Z,2.03
2023-04-02T09:25:19.175Z,2.92
2023-04-02T09:27:49.905Z,1.33
2023-04-02T09:33:07.230Z,1.27
2023-04-02T09:35:36.662Z,0.63
2023-04-02T09:38:23.032Z,0.77
2023-04-02T09:41:02.010Z,1.25
2023-04-02T09:43:37.533Z,0.63
2023-04-02T09:46:25.736Z,0.43
2023-04-02T09:48:53.220Z,0.85
2023-04-02T09:51:29.894Z,0.70
2023-04-02T09:54:02.429Z,0.40
2023-04-02T09:56:39.764Z,0.52
2023-04-02T09:59:22.780Z,0.40
2023-04-02T10:01:55.004Z,1.50
2023-04-02T10:04:44.472Z,1.33
2023-04-02T10:07:38.408Z,0.63
2023-04-02T10:10:16.729Z,1.48
2023-04-02T10:12:47.952Z,1.05
2023-04-02T10:15:23.318Z,0.88
2023-04-02T10:18:06.763Z,0.90
2023-04-02T10:20:41.711Z,1.40
2023-04-02T10:23:19.520Z,1.05
2023-04-02T10:26:18.487Z,0.88
2023-04-02T10:28:50.939Z,1.85
2023-04-02T10:31:27.977Z,1.65
2023-04-02T10:34:06.453Z,1.85
2023-04-02T10:36:54.612Z,1.80
2023-04-02T10:39:40.397Z,0.90
2023-04-02T10:42:26.456Z,1.13
2023-04-02T10:45:16.439Z,1.67
2023-04-02T10:47:53.401Z,1.25
2023-04-02T10:53:16.453Z,2.30
2023-04-02T10:55:56.976Z,0.80
2023-04-02T10:58:26.593Z,1.33
2023-04-02T11:00:59.278Z,1.52
2023-04-02T11:03:48.773Z,1.23
2023-04-02T11:06:30.416Z,1.13
2023-04-02T11:09:07.319Z,1.88
2023-04-02T11:14:22.502Z,1.42
2023-04-02T11:16:50.656Z,1.38
2023-04-02T11:19:17.081Z,2.97
2023-04-02T11:21:58.096Z,1.88
2023-04-02T11:24:36.820Z,1.80
2023-04-02T11:27:15.809Z,1.38
2023-04-02T11:29:50.540Z,1.63
2023-04-02T11:32:27.392Z,0.55
2023-04-02T11:35:05.992Z,0.82
2023-04-02T11:37:45.331Z,1.55
2023-04-02T11:40:12.073Z,2.83
2023-04-02T11:42:40.842Z,1.10
2023-04-02T11:45:28.732Z,1.48
2023-04-02T11:48:01.591Z,1.35
2023-04-02T11:50:56.751Z,0.50
2023-04-02T11:53:32.908Z,1.10
2023-04-02T11:56:29.199Z,1.95
2023-04-02T11:59:35.233Z,0.50
2023-04-02T12:02:26.573Z,1.42
2023-04-02T12:05:09.747Z,1.27
2023-04-02T12:08:05.104Z,2.35
2023-04-02T12:10:34.725Z,1.45
2023-04-02T12:13:01.293Z,1.63
2023-04-02T12:15:43.153Z,0.50
2023-04-02T12:18:16.117Z,2.03
2023-04-02T12:20:47.748Z,1.33
2023-04-02T12:23:36.719Z,1.00
2023-04-02T12:26:08.809Z,1.08
2023-04-02T12:28:38.046Z,0.45
2023-04-02T12:31:13.242Z,1.75
2023-04-02T12:33:41.326Z,0.95
2023-04-02T12:36:16.812Z,1.27
2023-04-02T12:38:47.648Z,0.55
2023-04-02T12:41:27.350Z,0.93
2023-04-02T12:44:01.440Z,1.15
2023-04-02T12:46:31.019Z,0.80
2023-04-02T12:49:11.982Z,1.02
2023-04-02T12:51:39.016Z,2.35
2023-04-02T12:54:06.082Z,1.65
2023-04-02T12:56:32.819Z,0.93
2023-04-02T12:59:01.189Z,1.10
2023-04-02T13:01:31.307Z,1.55
2023-04-02T13:04:02.077Z,1.60
2023-04-02T13:06:30.522Z,0.95
2023-04-02T13:08:57.250Z,1.85
2023-04-02T13:11:34.126Z,1.10
2023-04-02T13:16:35.915Z,0.85
2023-04-02T13:19:11.898Z,1.52
2023-04-02T13:21:38.536Z,1.08
2023-04-02T13:24:05.239Z,1.63
2023-04-02T13:26:31.808Z,1.30
2023-04-02T13:29:19.533Z,2.08
2023-04-02T13:31:45.968Z,1.73
2023-04-02T13:34:12.459Z,1.77
2023-04-02T13:36:38.997Z,1.27
2023-04-02T13:39:06.487Z,1.35
2023-04-02T13:41:40.560Z,0.82
2023-04-02T13:44:07.414Z,1.73
2023-04-02T13:46:34.829Z,1.63
2023-04-02T13:49:01.950Z,1.42
2023-04-02T13:51:37.098Z,1.33
2023-04-02T13:54:11.710Z,0.80
2023-04-02T13:56:38.563Z,0.60
2023-04-02T13:59:05.500Z,1.45
2023-04-02T14:01:32.153Z,1.40
2023-04-02T14:03:59.000Z,2.03
2023-04-02T14:07:10.793Z,0.60
2023-04-02T14:09:40.351Z,0.50
2023-04-02T14:12:41.317Z,1.42
2023-04-02T14:15:29.557Z,0.60
2023-04-02T14:18:28.395Z,2.00
2023-04-02T14:21:07.904Z,1.30
2023-04-02T14:23:45.811Z,2.00
2023-04-02T14:26:39.774Z,0.88
2023-04-02T14:29:29.451Z,1.33
2023-04-02T14:32:09.748Z,0.40
2023-04-02T14:34:46.790Z,1.13
2023-04-02T14:37:30.407Z,2.13
2023-04-02T14:40:29.553Z,1.25
2023-04-02T14:43:10.382Z,1.77
2023-04-02T14:45:45.137Z,1.08
2023-04-02T14:48:29.673Z,1.08
2023-04-02T14:51:03.008Z,2.05
2023-04-02T14:53:37.357Z,0.40
2023-04-02T14:56:08.095Z,0.40
2023-04-02T14:58:42.760Z,1.73
2023-04-02T15:01:15.332Z,0.70
2023-04-02T15:03:54.176Z,1.83
2023-04-02T15:06:27.142Z,0.82
2023-04-02T15:09:09.310Z,0.52
2023-04-02T15:11:41.527Z,0.60
2023-04-02T15:14:17.855Z,1.13
2023-04-02T15:16:44.783Z,0.60
2023-04-02T15:19:17.003Z,1.30
2023-04-02T15:21:57.682Z,0.75
2023-04-02T15:24:31.972Z,1.20
2023-04-02T15:27:25.997Z,0.90
2023-04-02T15:29:59.699Z,1.55
2023-04-02T15:32:32.283Z,1.13
2023-04-02T15:35:27.088Z,1.27
2023-04-02T15:38:00.052Z,0.93
2023-04-02T15:40:33.261Z,1.00
2023-04-02T15:43:29.246Z,1.38
2023-04-02T15:46:14.477Z,1.23
2023-04-02T15:49:00.052Z,0.50
2023-04-02T15:51:29.594Z,1.27
2023-04-02T15:54:17.766Z,0.70
2023-04-02T15:57:02.728Z,0.63
2023-04-02T16:00:01.293Z,1.55
2023-04-02T16:03:03.022Z,1.02
2023-04-02T16:05:49.636Z,0.55
2023-04-02T16:08:45.471Z,2.33
2023-04-02T16:11:14.454Z,0.80
2023-04-02T16:13:42.318Z,0.60
2023-04-02T16:16:17.362Z,0.63
2023-04-02T16:18:43.782Z,1.13
2023-04-02T16:21:15.858Z,1.50
2023-04-02T16:23:42.611Z,0.80
2023-04-02T16:26:40.325Z,1.02
2023-04-02T16:29:06.718Z,1.20
2023-04-02T16:31:39.142Z,1.77
2023-04-02T16:34:33.050Z,0.77
2023-04-02T16:37:21.186Z,1.45
2023-04-02T16:40:11.226Z,0.90
2023-04-02T16:42:52.986Z,0.55
2023-04-02T16:45:38.240Z,1.23
2023-04-02T16:48:16.820Z,1.50
2023-04-02T16:51:15.610Z,0.93
2023-04-02T16:54:10.586Z,0.75
2023-04-02T16:57:10.373Z,0.55
2023-04-02T16:59:49.124Z,0.68
2023-04-02T17:02:31.280Z,1.73
2023-04-02T17:05:12.472Z,0.65
2023-04-02T17:07:54.138Z,1.40
2023-04-02T17:10:30.202Z,1.13
2023-04-02T17:13:27.935Z,1.42
2023-04-02T17:16:06.326Z,0.73
2023-04-02T17:18:33.953Z,1.30
2023-04-02T17:21:06.564Z,0.68
2023-04-02T17:23:55.163Z,0.68
2023-04-02T17:26:27.492Z,1.35
2023-04-02T17:28:55.872Z,1.10
2023-04-02T17:31:24.494Z,0.65
2023-04-02T17:33:51.166Z,0.70
2023-04-02T17:36:39.272Z,0.55
2023-04-02T17:39:17.986Z,0.63
2023-04-02T17:41:53.181Z,0.77
2023-04-02T17:44:28.445Z,0.70
2023-04-02T17:47:03.994Z,1.27
2023-04-02T17:49:36.828Z,0.88
2023-04-02T17:52:25.795Z,1.05
2023-04-02T17:55:07.575Z,0.43
2023-04-02T17:58:09.558Z,1.15
2023-04-02T18:01:14.613Z,1.73
2023-04-02T18:03:51.549Z,0.65
2023-04-02T18:06:27.127Z,0.82
2023-04-02T18:09:11.477Z,1.63
2023-04-02T18:12:18.886Z,1.00
2023-04-02T18:14:55.782Z,0.73
2023-04-02T18:18:06.936Z,0.80
2023-04-02T18:20:45.894Z,0.80
2023-04-02T18:23:36.772Z,0.50
2023-04-02T18:26:14.590Z,1.42
2023-04-02T18:29:20.244Z,0.98
2023-04-02T18:32:09.046Z,1.40
2023-04-02T18:34:47.853Z,0.60
2023-04-02T18:37:38.889Z,1.55
2023-04-02T18:40:18.902Z,1.13
2023-04-02T18:43:00.598Z,1.25
2023-04-02T18:45:52.878Z,2.75
2023-04-02T18:48:44.109Z,1.50
2023-04-02T18:51:18.114Z,1.02
2023-04-02T18:53:46.302Z,0.63
2023-04-02T18:56:20.035Z,1.85
2023-04-02T18:58:58.216Z,1.30
2023-04-02T19:01:34.284Z,1.35
2023-04-02T19:04:05.952Z,1.77
2023-04-02T19:06:49.378Z,2.05
2023-04-02T19:09:24.619Z,0.90
2023-04-02T19:11:53.022Z,1.30
2023-04-02T19:14:23.460Z,0.80
2023-04-02T19:17:07.355Z,1.42
2023-04-02T19:19:42.912Z,0.88
2023-04-02T19:22:49.214Z,1.02
2023-04-02T19:25:42.040Z,1.10
2023-04-02T19:28:37.771Z,1.15
2023-04-02T19:31:29.256Z,0.40
2023-04-02T19:34:08.088Z,1.13
2023-04-02T19:36:44.954Z,0.32
2023-04-02T19:39:31.267Z,0.40
2023-04-02T19:42:10.457Z,1.08
2023-04-02T19:44:43.558Z,0.55
2023-04-02T19:47:11.141Z,1.00
2023-04-02T19:49:37.685Z,1.52
2023-04-02T19:52:04.287Z,1.35
2023-04-02T19:54:30.733Z,0.55
2023-04-02T19:56:58.221Z,1.42
2023-04-02T19:59:24.774Z,1.08
2023-04-02T20:01:51.230Z,0.60
2023-04-02T20:04:17.841Z,1.05
2023-04-02T20:06:44.466Z,0.50
2023-04-02T20:09:11.116Z,0.75
2023-04-02T20:11:38.557Z,2.15
2023-04-02T20:14:05.563Z,1.38
2023-04-02T20:16:33.746Z,2.47
2023-04-02T20:19:00.524Z,1.70
2023-04-02T20:21:27.508Z,0.50
2023-04-02T20:23:55.281Z,1.08
2023-04-02T20:26:22.497Z,1.45
2023-04-02T20:28:48.984Z,1.17
2023-04-02T20:31:18.033Z,0.60
2023-04-02T20:33:44.852Z,1.08
2023-04-02T20:36:14.066Z,1.45
2023-04-02T20:38:40.616Z,0.63
2023-04-02T20:41:08.211Z,0.73
2023-04-02T20:43:36.299Z,1.02
2023-04-02T20:46:06.442Z,1.40
2023-04-02T20:48:35.194Z,1.27
2023-04-02T20:51:03.685Z,1.42
2023-04-02T20:53:32.288Z,0.57
2023-04-02T20:56:27.742Z,0.73
2023-04-02T21:02:11.639Z,1.95
2023-04-02T21:04:38.164Z,1.08
2023-04-02T21:07:04.682Z,1.38
2023-04-02T21:09:31.135Z,1.17
2023-04-02T21:11:57.640Z,1.85
2023-04-02T21:14:24.428Z,1.17
2023-04-02T21:16:50.889Z,0.85
2023-04-02T21:19:17.336Z,0.45
2023-04-02T21:21:44.895Z,0.40
2023-04-02T21:24:11.620Z,0.82
2023-04-02T21:26:41.011Z,1.42
2023-04-02T21:29:07.866Z,0.55
2023-04-02T21:31:37.508Z,0.98
2023-04-02T21:34:05.945Z,1.42
2023-04-02T21:36:35.478Z,0.63
2023-04-02T21:39:05.454Z,1.50
2023-04-02T21:41:34.806Z,0.20
2023-04-02T21:44:03.131Z,1.05
2023-04-02T21:46:33.380Z,0.70
2023-04-02T21:49:00.633Z,1.15
2023-04-02T21:51:29.391Z,1.25
2023-04-02T21:53:56.087Z,1.45
2023-04-02T21:56:26.159Z,0.95
2023-04-02T21:58:53.189Z,0.40
2023-04-02T22:01:27.165Z,1.63
2023-04-02T22:03:57.705Z,0.25
2023-04-02T22:06:26.408Z,0.40
2023-04-02T22:08:58.766Z,0.35
2023-04-02T22:11:28.302Z,0.55
2023-04-02T22:13:55.544Z,0.95
2023-04-02T22:16:25.741Z,1.05
2023-04-02T22:18:54.286Z,1.40
2023-04-02T22:21:21.294Z,1.25
2023-04-02T22:23:49.754Z,1.02
2023-04-02T22:26:17.859Z,0.85
2023-04-02T22:28:45.313Z,0.50
2023-04-02T22:31:14.890Z,1.05
2023-04-02T22:33:42.072Z,2.05
2023-04-02T22:36:08.708Z,1.38
2023-04-02T22:38:36.228Z,1.10
2023-04-02T22:41:13.026Z,0.43
2023-04-02T22:43:40.621Z,0.30
2023-04-02T22:46:08.957Z,1.20
2023-04-02T22:48:36.187Z,1.95
2023-04-02T22:51:05.411Z,0.95
2023-04-02T22:53:32.037Z,0.90
2023-04-02T22:56:03.151Z,0.50
2023-04-02T22:58:29.763Z,1.40
2023-04-02T23:00:56.177Z,1.38
2023-04-02T23:03:22.640Z,0.38
2023-04-02T23:06:01.487Z,0.43
2023-04-02T23:08:28.219Z,0.43
2023-04-02T23:11:06.666Z,0.82
2023-04-02T23:13:34.070Z,0.75
2023-04-02T23:16:02.593Z,1.25
2023-04-02T23:18:31.753Z,0.68
2023-04-02T23:20:58.470Z,0.47
2023-04-02T23:23:25.939Z,1.98
2023-04-02T23:26:08.091Z,0.82
2023-04-02T23:28:36.196Z,0.22
2023-04-02T23:31:04.604Z,0.75
2023-04-02T23:33:31.333Z,1.35
2023-04-02T23:35:58.511Z,0.73
2023-04-02T23:38:26.425Z,0.95
2023-04-02T23:40:53.589Z,1.00
2023-04-02T23:43:20.252Z,1.00
2023-04-02T23:45:48.677Z,1.33
2023-04-02T23:48:15.786Z,1.05
2023-04-02T23:50:44.042Z,1.02
2023-04-02T23:53:10.556Z,0.90
2023-04-02T23:55:36.991Z,0.98
2023-04-02T23:58:06.674Z,1.15
